Time;durP1;ratioP1;P1;durP2;ratioP2;P2;SDS_P1;SDS_P2;PMS_P1;PMS_P2;Temp;Humidity;BMP_temperature;BMP_pressure;BME280_temperature;BME280_humidity;BME280_pressure;Samples;Min_cycle;Max_cycle;Signal;HPM_P1;HPM_P2
2024/02/09 00:00:57;;;;;;;12.15;6.40;;;;;;;-13.89;69.36;97671.50;5110130;28;20104;-59
2024/02/09 00:03:26;;;;;;;12.50;7.57;;;;;;;-13.86;69.00;97666.97;5111110;28;20071;-59
2024/02/09 00:05:53;;;;;;;18.48;5.70;;;;;;;-13.86;69.18;97678.91;5111355;28;20066;-58
2024/02/09 00:08:20;;;;;;;16.48;7.32;;;;;;;-13.98;68.51;97673.88;5108766;28;20512;-59
2024/02/09 00:10:47;;;;;;;10.60;5.68;;;;;;;-13.93;69.09;97657.41;5111324;28;20213;-59
2024/02/09 00:13:17;;;;;;;14.27;7.18;;;;;;;-13.90;68.21;97662.25;5115045;28;20046;-58
2024/02/09 00:15:45;;;;;;;15.52;7.32;;;;;;;-13.83;69.72;97664.16;5115009;28;20039;-59
2024/02/09 00:18:18;;;;;;;13.20;6.65;;;;;;;-13.87;68.95;97672.19;5115020;28;20122;-58
2024/02/09 00:20:45;;;;;;;14.43;6.50;;;;;;;-13.83;68.30;97668.44;5114909;28;20040;-58
2024/02/09 00:23:12;;;;;;;13.15;6.25;;;;;;;-13.82;69.23;97663.25;5114880;28;20054;-60
2024/02/09 00:25:38;;;;;;;13.30;6.28;;;;;;;-13.80;68.93;97670.75;5114969;28;20084;-59
2024/02/09 00:28:05;;;;;;;14.70;6.63;;;;;;;-13.78;68.44;97668.88;5113575;28;20130;-60
2024/02/09 00:30:32;;;;;;;13.43;5.85;;;;;;;-13.80;68.67;97655.47;5114727;28;20070;-59
2024/02/09 00:33:03;;;;;;;11.88;6.35;;;;;;;-13.89;68.27;97657.03;5115233;28;20157;-60
2024/02/09 00:35:29;;;;;;;14.38;6.75;;;;;;;-13.96;68.71;97663.56;5115169;28;20122;-59
2024/02/09 00:37:55;;;;;;;14.80;6.97;;;;;;;-13.86;68.87;97671.25;5115168;28;20036;-59
2024/02/09 00:40:25;;;;;;;11.30;6.28;;;;;;;-13.96;67.87;97672.00;5115029;28;20100;-59
2024/02/09 00:42:51;;;;;;;13.87;6.30;;;;;;;-13.91;68.64;97671.66;5115116;28;20074;-59
2024/02/09 00:45:20;;;;;;;15.95;6.63;;;;;;;-13.90;68.39;97657.16;5114938;28;20084;-60
2024/02/09 00:47:49;;;;;;;13.43;6.93;;;;;;;-13.79;68.10;97662.19;5114885;28;20048;-58
2024/02/09 00:50:17;;;;;;;15.63;7.00;;;;;;;-13.83;68.90;97666.72;5114867;28;20084;-58
2024/02/09 00:52:51;;;;;;;13.10;6.82;;;;;;;-13.81;68.02;97666.59;5114853;28;20429;-59
2024/02/09 00:55:17;;;;;;;13.73;7.78;;;;;;;-13.78;67.45;97668.88;5114515;28;20073;-58
2024/02/09 00:57:44;;;;;;;18.10;7.13;;;;;;;-13.75;67.75;97655.91;5114736;28;20180;-59
2024/02/09 01:00:14;;;;;;;12.52;6.13;;;;;;;-13.68;67.39;97672.28;5114391;27;20569;-58
2024/02/09 01:02:40;;;;;;;18.08;7.60;;;;;;;-13.69;67.36;97660.47;5114551;28;20559;-54
2024/02/09 01:05:07;;;;;;;12.02;6.25;;;;;;;-13.81;67.91;97659.75;5114255;28;20085;-60
2024/02/09 01:07:33;;;;;;;13.45;6.63;;;;;;;-13.89;67.97;97651.94;5114604;28;20046;-60
2024/02/09 01:09:59;;;;;;;15.90;7.20;;;;;;;-13.90;67.33;97672.44;5114462;28;20047;-60
2024/02/09 02:45:27;;;;;;;16.88;7.18;;;;;;;-13.88;66.27;97691.78;5111027;28;20035;-59
2024/02/09 03:04:19;;;;;;;15.27;6.68;;;;;;;-14.11;67.65;97696.19;5111087;28;20043;-59
2024/02/09 03:06:45;;;;;;;10.63;7.28;;;;;;;-14.18;66.53;97697.59;5112302;28;20417;-57
2024/02/09 03:09:11;;;;;;;12.40;5.47;;;;;;;-14.18;67.50;97700.13;5112163;28;20040;-60
2024/02/09 03:11:36;;;;;;;14.35;5.75;;;;;;;-14.23;66.99;97697.19;5112139;28;20489;-59
2024/02/09 03:14:02;;;;;;;14.60;6.35;;;;;;;-14.26;67.59;97688.03;5110946;28;20101;-60
2024/02/09 03:16:28;;;;;;;17.88;7.00;;;;;;;-14.25;66.87;97699.03;5110178;28;20048;-58
2024/02/09 03:18:54;;;;;;;13.70;6.25;;;;;;;-14.24;67.15;97698.88;5093625;28;20054;-59
2024/02/09 03:21:26;;;;;;;13.95;7.57;;;;;;;-14.23;66.63;97704.81;5111998;28;20036;-60
2024/02/09 03:23:53;;;;;;;17.05;6.15;;;;;;;-14.27;66.82;97700.88;5110739;28;20382;-62
2024/02/09 03:26:23;;;;;;;10.18;5.43;;;;;;;-14.23;67.20;97703.06;5112113;28;20039;-59
2024/02/09 03:28:56;;;;;;;15.63;7.03;;;;;;;-14.12;67.52;97707.28;5112160;28;20040;-58
2024/02/09 03:31:24;;;;;;;13.93;6.30;;;;;;;-14.18;66.31;97708.56;5093971;28;20056;-57
2024/02/09 03:33:52;;;;;;;16.27;7.18;;;;;;;-14.25;67.42;97706.66;5110732;28;20123;-58
2024/02/09 03:36:20;;;;;;;10.80;5.72;;;;;;;-14.33;66.69;97696.28;5111896;28;20040;-59
2024/02/09 03:38:47;;;;;;;14.70;6.60;;;;;;;-14.26;67.00;97697.41;5111484;28;20432;-59
2024/02/09 03:41:13;;;;;;;15.98;7.00;;;;;;;-14.21;66.73;97692.75;5110302;28;20035;-57
2024/02/09 03:43:39;;;;;;;13.10;6.20;;;;;;;-14.26;66.85;97688.03;5111277;28;20047;-59
2024/02/09 03:46:05;;;;;;;17.23;6.85;;;;;;;-14.18;67.22;97695.03;5114065;28;20520;-58
2024/02/09 03:48:32;;;;;;;12.23;6.13;;;;;;;-14.31;66.12;97696.97;5115708;28;20043;-58
2024/02/09 03:51:01;;;;;;;13.27;5.82;;;;;;;-14.37;66.11;97700.81;5115570;28;20039;-55
2024/02/09 03:53:31;;;;;;;12.88;6.00;;;;;;;-14.43;67.14;97702.09;5113125;28;20066;-59
2024/02/09 03:55:56;;;;;;;14.67;5.70;;;;;;;-14.44;66.68;97708.13;5115577;28;20039;-58
2024/02/09 03:58:22;;;;;;;9.45;5.65;;;;;;;-14.48;66.98;97711.03;5115382;28;20283;-58
2024/02/09 04:00:48;;;;;;;11.40;5.63;;;;;;;-14.51;67.20;97713.84;5115087;28;20084;-58
2024/02/09 04:03:15;;;;;;;13.57;6.20;;;;;;;-14.53;67.10;97713.16;5115143;27;20051;-59
2024/02/09 04:05:41;;;;;;;8.73;5.43;;;;;;;-14.59;66.26;97694.09;5097095;28;20040;-59
2024/02/09 04:08:07;;;;;;;12.00;6.00;;;;;;;-14.61;67.18;97701.06;5114000;28;20122;-59
2024/02/09 04:10:32;;;;;;;13.27;6.60;;;;;;;-14.77;66.50;97680.28;5114768;28;20055;-57
2024/02/09 04:12:58;;;;;;;14.90;5.22;;;;;;;-14.64;67.20;97721.66;5115365;28;20118;-58
2024/02/09 04:15:24;;;;;;;11.25;5.80;;;;;;;-14.67;67.00;97715.06;5115390;28;20509;-61
2024/02/09 04:17:51;;;;;;;15.55;6.57;;;;;;;-14.70;67.29;97712.75;5114998;28;20083;-59
2024/02/09 04:20:17;;;;;;;10.10;5.57;;;;;;;-14.70;66.63;97730.56;5115299;28;20040;-60
2024/02/09 04:22:43;;;;;;;14.52;6.88;;;;;;;-14.66;67.10;97723.50;5114254;28;20047;-60
2024/02/09 04:25:09;;;;;;;13.52;6.43;;;;;;;-14.67;66.26;97730.31;5113640;28;20043;-59
2024/02/09 04:27:34;;;;;;;9.57;5.05;;;;;;;-14.65;66.78;97731.00;5115285;28;20040;-59
2024/02/09 04:30:00;;;;;;;9.00;5.57;;;;;;;-14.69;66.60;97728.81;5113556;28;20073;-60
2024/02/09 04:32:26;;;;;;;13.00;5.82;;;;;;;-14.74;66.73;97730.91;5113726;28;20043;-59
2024/02/09 04:34:51;;;;;;;11.20;6.10;;;;;;;-14.75;67.14;97730.09;5115061;28;20513;-61
2024/02/09 04:37:21;;;;;;;10.95;5.25;;;;;;;-14.77;66.42;97724.31;5115068;28;20509;-60
2024/02/09 04:39:47;;;;;;;13.95;6.15;;;;;;;-14.74;66.89;97734.25;5114974;28;20479;-60
2024/02/09 04:42:13;;;;;;;13.43;7.32;;;;;;;-14.78;67.12;97727.00;5096532;28;20039;-60
2024/02/09 04:44:39;;;;;;;14.82;6.20;;;;;;;-14.78;67.14;97727.00;5113269;28;20096;-61
2024/02/09 04:47:05;;;;;;;15.63;5.50;;;;;;;-14.79;67.27;97744.00;5113294;28;20043;-59
2024/02/09 04:49:30;;;;;;;14.70;6.40;;;;;;;-14.83;67.13;97737.50;5114406;27;20039;-60
2024/02/09 04:51:56;;;;;;;11.93;5.88;;;;;;;-14.77;66.72;97738.78;5113164;28;20046;-59
2024/02/09 04:54:22;;;;;;;16.63;6.70;;;;;;;-14.76;67.25;97740.38;5113143;28;20088;-61
2024/02/09 04:56:49;;;;;;;13.27;6.65;;;;;;;-14.76;66.90;97732.75;5113997;28;20463;-60
2024/02/09 04:59:15;;;;;;;12.25;5.53;;;;;;;-14.76;66.49;97746.31;5114657;28;20409;-59
2024/02/09 05:01:41;;;;;;;11.18;5.53;;;;;;;-14.75;66.49;97747.91;5114384;28;20074;-60
2024/02/09 05:04:12;;;;;;;14.52;6.70;;;;;;;-14.71;66.36;97741.66;5112261;28;20047;-60
2024/02/09 05:06:39;;;;;;;11.77;5.25;;;;;;;-14.70;66.47;97740.75;5113959;28;20366;-60
2024/02/09 05:09:08;;;;;;;11.65;5.57;;;;;;;-14.64;66.70;97739.47;5114348;28;20040;-59
2024/02/09 05:11:36;;;;;;;9.85;6.28;;;;;;;-14.62;66.90;97732.50;5113073;28;20387;-59
2024/02/09 05:14:06;;;;;;;14.32;6.35;;;;;;;-14.53;66.68;97733.50;5113212;28;20039;-61
2024/02/09 05:16:33;;;;;;;10.95;5.57;;;;;;;-14.62;65.91;97739.31;5112947;28;20038;-60
2024/02/09 05:19:01;;;;;;;12.20;4.78;;;;;;;-14.57;65.54;97742.31;5113912;28;20056;-61
2024/02/09 05:21:27;;;;;;;13.18;6.13;;;;;;;-14.50;65.73;97738.31;5114206;27;20047;-61
2024/02/09 05:23:52;;;;;;;13.15;5.53;;;;;;;-14.42;65.59;97746.97;5113642;28;20044;-60
2024/02/09 05:26:19;;;;;;;17.77;6.40;;;;;;;-14.39;65.20;97757.84;5114168;28;20046;-61
2024/02/09 05:28:46;;;;;;;12.15;5.50;;;;;;;-14.35;64.93;97743.94;5112685;28;20493;-60
2024/02/09 05:31:13;;;;;;;15.43;6.18;;;;;;;-14.23;65.42;97760.81;5113806;28;20047;-60
2024/02/09 05:33:39;;;;;;;8.38;5.15;;;;;;;-14.13;65.28;97761.69;5113622;28;20531;-61
2024/02/09 05:36:05;;;;;;;12.07;5.43;;;;;;;-14.23;63.70;97766.69;5112688;28;20196;-61
2024/02/09 05:38:32;;;;;;;12.90;6.25;;;;;;;-14.09;65.25;97764.78;5113809;28;20042;-59
2024/02/09 05:40:59;;;;;;;12.75;6.55;;;;;;;-13.97;64.82;97774.81;5113543;28;20032;-60
2024/02/09 05:43:24;;;;;;;11.90;5.32;;;;;;;-13.96;64.00;97773.06;5111733;28;20040;-59
2024/02/09 05:45:50;;;;;;;13.15;6.70;;;;;;;-13.85;64.62;97790.84;5113318;28;20047;-60
2024/02/09 05:48:16;;;;;;;14.23;6.03;;;;;;;-13.83;64.29;97763.50;5113330;28;20140;-60
2024/02/09 05:50:41;;;;;;;10.02;5.05;;;;;;;-13.75;64.10;97783.28;5111969;28;20174;-61
2024/02/09 05:53:08;;;;;;;15.52;5.70;;;;;;;-13.68;64.10;97781.84;5113497;28;20055;-60
2024/02/09 05:55:34;;;;;;;12.35;6.45;;;;;;;-13.67;64.00;97777.56;5113461;28;20040;-59
2024/02/09 05:58:00;;;;;;;10.95;5.40;;;;;;;-13.51;64.29;97796.56;5113523;28;20047;-60
2024/02/09 06:00:26;;;;;;;8.32;4.82;;;;;;;-13.56;62.61;97805.50;5113029;28;20519;-61
2024/02/09 06:02:53;;;;;;;9.57;5.55;;;;;;;-13.62;62.74;97800.91;5113260;28;20079;-61
2024/02/09 06:05:19;;;;;;;10.35;5.10;;;;;;;-13.60;62.90;97796.50;5113304;28;20062;-60
2024/02/09 06:07:47;;;;;;;13.15;6.88;;;;;;;-13.61;61.95;97795.72;5113385;28;20035;-60
2024/02/09 06:10:13;;;;;;;11.57;5.28;;;;;;;-13.45;62.42;97802.09;5111019;28;20047;-61
2024/02/09 06:12:38;;;;;;;13.95;6.00;;;;;;;-13.34;62.45;97790.09;5113029;28;20532;-61
2024/02/09 06:15:05;;;;;;;11.65;5.40;;;;;;;-13.30;62.79;97785.53;5111832;28;20044;-60
2024/02/09 06:17:31;;;;;;;13.02;6.30;;;;;;;-13.15;62.19;97783.44;5112381;28;20039;-60
2024/02/09 06:19:57;;;;;;;11.25;5.47;;;;;;;-13.12;61.60;97783.19;5076687;28;20046;-60
2024/02/09 06:22:23;;;;;;;15.30;5.88;;;;;;;-13.12;61.47;97783.19;5111392;28;20039;-60
2024/02/09 06:24:52;;;;;;;9.10;5.32;;;;;;;-12.97;62.50;97783.63;5111548;28;20047;-63
2024/02/09 06:27:19;;;;;;;13.03;7.43;;;;;;;-12.88;60.75;97790.50;5094503;28;20100;-60
2024/02/09 06:29:45;;;;;;;13.25;6.35;;;;;;;-12.80;61.84;97798.34;5112697;28;20043;-58
2024/02/09 06:32:11;;;;;;;10.52;6.13;;;;;;;-12.76;61.63;97798.88;5111529;28;20054;-55
2024/02/09 06:34:36;;;;;;;9.52;5.30;;;;;;;-12.79;61.17;97794.03;5112769;28;20558;-61
2024/02/09 06:37:02;;;;;;;11.48;5.63;;;;;;;-12.56;61.54;97792.91;5112734;28;20493;-59
2024/02/09 06:39:28;;;;;;;13.18;6.60;;;;;;;-12.44;59.91;97796.97;5112348;28;20631;-58
2024/02/09 06:41:54;;;;;;;11.15;6.22;;;;;;;-12.31;61.21;97789.06;5112508;28;20118;-60
2024/02/09 06:44:19;;;;;;;12.63;6.22;;;;;;;-12.13;60.82;97786.66;5110964;28;20052;-62
2024/02/09 06:46:45;;;;;;;11.57;5.93;;;;;;;-12.28;58.66;97772.66;5112275;28;20047;-57
2024/02/09 06:49:11;;;;;;;12.10;5.30;;;;;;;-12.05;60.47;97789.34;5112534;28;20477;-61
2024/02/09 06:51:37;;;;;;;14.63;5.30;;;;;;;-11.98;60.75;97792.16;5112324;27;20039;-58
2024/02/09 06:54:03;;;;;;;13.10;5.72;;;;;;;-12.00;59.39;97792.31;5111294;28;20069;-59
2024/02/09 06:56:29;;;;;;;12.65;6.13;;;;;;;-12.18;59.94;97788.78;5094085;28;20516;-59
2024/02/09 06:58:58;;;;;;;13.63;6.90;;;;;;;-12.04;60.00;97790.97;5112071;28;20577;-60
2024/02/09 07:01:24;;;;;;;11.73;5.68;;;;;;;-12.14;60.09;97790.97;5112324;28;20036;-59
2024/02/09 07:03:52;;;;;;;8.68;5.65;;;;;;;-12.20;60.12;97790.69;5111826;28;20177;-59
2024/02/09 07:06:22;;;;;;;10.52;5.93;;;;;;;-12.09;60.02;97792.28;5111075;28;20553;-58
2024/02/09 07:08:52;;;;;;;12.52;5.65;;;;;;;-11.96;59.62;97795.41;5111962;28;20039;-60
2024/02/09 07:11:18;;;;;;;12.50;5.90;;;;;;;-12.03;59.87;97792.56;5112306;28;20039;-59
2024/02/09 07:13:46;;;;;;;12.40;5.20;;;;;;;-11.85;60.18;97795.28;5110946;28;20038;-60
2024/02/09 07:16:11;;;;;;;12.85;5.43;;;;;;;-11.77;59.52;97792.00;5111971;28;20489;-59
2024/02/09 07:18:40;;;;;;;9.35;5.20;;;;;;;-11.62;60.34;97793.19;5112055;28;20176;-59
2024/02/09 07:21:08;;;;;;;12.50;5.38;;;;;;;-11.49;58.98;97798.03;5111768;28;20067;-60
2024/02/09 07:23:35;;;;;;;9.52;5.47;;;;;;;-11.34;59.19;97804.31;5110348;28;20505;-58
2024/02/09 07:26:01;;;;;;;9.25;4.90;;;;;;;-11.26;58.92;97801.88;5110690;28;20044;-59
2024/02/09 07:28:27;;;;;;;11.93;5.53;;;;;;;-11.24;58.61;97804.28;5110983;28;20131;-59
2024/02/09 07:30:55;;;;;;;10.23;5.30;;;;;;;-11.15;58.56;97800.09;5112085;28;20457;-58
2024/02/09 07:33:21;;;;;;;10.25;5.35;;;;;;;-11.16;57.78;97786.50;5111959;28;20111;-60
2024/02/09 07:35:47;;;;;;;10.65;5.68;;;;;;;-11.03;58.43;97799.81;5110337;28;20035;-58
2024/02/09 07:38:13;;;;;;;7.55;4.90;;;;;;;-10.98;58.82;97801.94;5111945;28;20050;-59
2024/02/09 07:40:39;;;;;;;8.63;4.88;;;;;;;-10.73;58.96;97797.09;5111939;28;20067;-59
2024/02/09 07:43:05;;;;;;;9.20;4.93;;;;;;;-10.75;58.40;97794.69;5111758;28;20047;-60
2024/02/09 07:45:31;;;;;;;9.20;4.93;;;;;;;-10.63;58.41;97793.56;5111330;28;20055;-58
2024/02/09 07:48:00;;;;;;;7.70;4.90;;;;;;;-10.71;57.60;97793.47;5112011;28;20405;-58
2024/02/09 07:50:26;;;;;;;10.27;4.78;;;;;;;-10.77;57.55;97784.59;5111945;28;20097;-58
2024/02/09 07:52:55;;;;;;;10.23;5.47;;;;;;;-10.80;57.76;97786.63;5112523;28;20050;-59
2024/02/09 07:55:21;;;;;;;12.43;5.72;;;;;;;-10.95;57.94;97788.06;5112303;28;20063;-59
2024/02/09 07:57:48;;;;;;;11.93;5.10;;;;;;;-10.87;58.30;97781.28;5111242;28;20044;-60
2024/02/09 08:00:18;;;;;;;11.05;5.63;;;;;;;-10.55;58.38;97790.28;5111741;28;20044;-59
2024/02/09 08:02:44;;;;;;;8.43;4.88;;;;;;;-10.60;57.23;97784.78;5110031;28;20032;-60
2024/02/09 08:05:17;;;;;;;9.23;4.85;;;;;;;-10.43;58.24;97786.59;5111492;28;20451;-59
2024/02/09 08:07:49;;;;;;;9.38;5.00;;;;;;;-10.22;58.56;97782.91;5111330;28;20046;-61
2024/02/09 08:10:15;;;;;;;11.73;6.18;;;;;;;-10.17;57.09;97788.41;5109623;28;20522;-60
2024/02/09 08:12:41;;;;;;;10.23;5.63;;;;;;;-10.03;56.70;97790.47;5109663;28;20050;-60
2024/02/09 08:15:10;;;;;;;9.82;5.22;;;;;;;-9.99;56.57;97801.25;5109628;28;20484;-58
2024/02/09 08:17:47;;;;;;;11.27;4.67;;;;;;;-9.92;56.40;97797.94;5111828;28;20040;-59
2024/02/09 08:20:14;;;;;;;11.80;5.55;;;;;;;-9.63;57.33;97805.38;5113660;28;20410;-59
2024/02/09 08:22:44;;;;;;;12.27;5.20;;;;;;;-9.51;56.09;97803.41;5109859;28;20036;-59
2024/02/09 08:25:13;;;;;;;11.40;5.70;;;;;;;-9.42;55.64;97799.94;5111996;28;20039;-56
2024/02/09 08:27:39;;;;;;;10.57;5.43;;;;;;;-9.22;57.27;97800.53;5111380;28;20035;-59
2024/02/09 08:30:08;;;;;;;10.07;5.03;;;;;;;-9.02;55.94;97800.34;5111270;28;20059;-60
2024/02/09 08:32:35;;;;;;;7.50;4.38;;;;;;;-8.84;55.59;97798.50;5112819;28;20145;-59
2024/02/09 08:35:01;;;;;;;10.98;5.45;;;;;;;-8.76;55.50;97806.25;5113264;28;20059;-58
2024/02/09 08:37:29;;;;;;;8.15;4.50;;;;;;;-8.53;56.07;97809.09;5114970;28;20081;-60
2024/02/09 08:39:58;;;;;;;10.75;4.82;;;;;;;-8.46;55.39;97814.41;5115040;27;20046;-60
2024/02/09 08:42:25;;;;;;;10.10;5.17;;;;;;;-8.31;53.59;97812.00;5114726;28;20032;-58
2024/02/09 08:44:51;;;;;;;10.85;4.78;;;;;;;-8.19;54.52;97815.09;5113528;28;20301;-60
2024/02/09 08:47:16;;;;;;;8.70;4.55;;;;;;;-8.04;54.33;97808.38;5114672;28;20046;-56
2024/02/09 08:49:43;;;;;;;9.27;4.85;;;;;;;-8.03;54.54;97813.38;5114580;28;20126;-59
2024/02/09 08:52:10;;;;;;;9.15;4.53;;;;;;;-7.95;54.05;97806.63;5114676;28;20122;-59
2024/02/09 08:54:35;;;;;;;9.38;4.35;;;;;;;-7.89;55.23;97811.13;5114206;28;20134;-58
2024/02/09 08:57:01;;;;;;;7.88;4.95;;;;;;;-7.96;53.28;97803.25;5114445;28;20031;-60
2024/02/09 08:59:27;;;;;;;10.73;4.97;;;;;;;-7.85;54.80;97804.72;5113246;28;20050;-57
2024/02/09 09:01:53;;;;;;;8.70;4.45;;;;;;;-7.78;54.16;97806.47;5114518;28;20043;-58
2024/02/09 09:04:19;;;;;;;9.48;4.85;;;;;;;-7.63;54.71;97803.28;5114068;28;20052;-59
2024/02/09 09:06:45;;;;;;;6.55;4.10;;;;;;;-7.49;53.14;97812.13;5114436;28;20126;-59
2024/02/09 09:09:14;;;;;;;7.05;4.28;;;;;;;-7.37;54.36;97811.63;5112827;28;20039;-59
2024/02/09 09:11:44;;;;;;;9.48;4.95;;;;;;;-7.28;52.91;97815.00;5112597;28;20109;-58
2024/02/09 09:14:11;;;;;;;8.63;5.03;;;;;;;-7.17;53.77;97816.47;5112663;28;20067;-60
2024/02/09 09:16:39;;;;;;;10.30;4.65;;;;;;;-7.10;52.88;97810.47;5112782;28;20048;-60
2024/02/09 09:19:08;;;;;;;10.32;5.03;;;;;;;-7.17;52.23;97809.53;5112473;28;20152;-59
2024/02/09 09:21:38;;;;;;;10.02;5.05;;;;;;;-7.10;53.71;97804.53;5113651;28;20581;-59
2024/02/09 09:24:05;;;;;;;8.82;4.57;;;;;;;-6.96;52.50;97808.19;5114171;28;20055;-60
2024/02/09 09:26:30;;;;;;;9.55;4.68;;;;;;;-6.94;52.46;97804.50;5095744;28;20044;-58
2024/02/09 09:28:57;;;;;;;8.75;4.22;;;;;;;-6.86;53.27;97814.75;5095608;28;20075;-55
2024/02/09 09:31:25;;;;;;;8.32;4.45;;;;;;;-6.72;52.53;97810.69;5113711;27;20048;-60
2024/02/09 09:33:54;;;;;;;10.18;4.60;;;;;;;-6.67;52.64;97808.44;5113662;28;20420;-59
2024/02/09 09:36:20;;;;;;;8.05;4.65;;;;;;;-6.61;52.83;97801.81;5113045;28;20046;-60
2024/02/09 09:38:46;;;;;;;9.73;4.88;;;;;;;-6.47;53.10;97811.44;5113929;28;20297;-59
2024/02/09 09:41:12;;;;;;;8.32;4.00;;;;;;;-6.37;52.06;97794.94;5112601;28;20031;-59
2024/02/09 09:43:39;;;;;;;7.32;3.83;;;;;;;-6.50;50.75;97798.06;5112184;28;20143;-59
2024/02/09 09:46:08;;;;;;;6.25;4.45;;;;;;;-6.44;52.29;97794.78;5112262;28;20433;-61
2024/02/09 09:48:35;;;;;;;6.28;3.95;;;;;;;-6.36;52.03;97793.97;5113581;28;20130;-60
2024/02/09 09:51:02;;;;;;;9.95;4.05;;;;;;;-6.28;52.09;97804.25;5112326;28;20454;-60
2024/02/09 09:53:38;;;;;;;8.73;4.20;;;;;;;-6.27;50.68;97805.84;5113417;28;20044;-58
2024/02/09 09:56:06;;;;;;;7.90;3.90;;;;;;;-6.28;51.91;97789.56;5113802;28;20127;-59
2024/02/09 09:58:33;;;;;;;6.80;3.63;;;;;;;-6.05;52.23;97804.28;5112507;28;20031;-58
2024/02/09 10:01:00;;;;;;;6.93;4.00;;;;;;;-6.01;51.26;97790.06;5112501;28;20040;-59
2024/02/09 10:03:27;;;;;;;5.38;3.45;;;;;;;-6.20;49.60;97801.63;5112825;28;20040;-60
2024/02/09 10:05:54;;;;;;;6.60;3.75;;;;;;;-5.86;50.50;97795.25;5112716;28;20039;-60
2024/02/09 10:08:20;;;;;;;5.60;3.22;;;;;;;-5.79;49.77;97797.00;5112516;28;20077;-59
2024/02/09 10:10:46;;;;;;;6.95;3.45;;;;;;;-5.75;48.71;97797.44;5113841;28;20036;-59
2024/02/09 10:13:12;;;;;;;7.40;3.28;;;;;;;-5.68;49.22;97789.81;5112571;28;20039;-59
2024/02/09 10:15:40;;;;;;;5.47;3.63;;;;;;;-5.35;51.14;97800.69;5077502;28;20107;-59
2024/02/09 10:18:10;;;;;;;7.65;3.85;;;;;;;-5.29;49.86;97807.75;5111679;28;20071;-60
2024/02/09 10:20:48;;;;;;;6.03;3.30;;;;;;;-5.32;49.21;97810.69;5111842;28;20112;-59
2024/02/09 10:23:21;;;;;;;4.68;3.10;;;;;;;-5.26;48.63;97812.56;5112668;28;20055;-58
2024/02/09 10:25:47;;;;;;;4.72;2.80;;;;;;;-5.12;49.08;97809.16;5112885;28;20036;-59
2024/02/09 10:28:13;;;;;;;5.95;3.17;;;;;;;-4.99;48.99;97812.97;5112671;28;20458;-59
2024/02/09 10:30:40;;;;;;;6.15;3.30;;;;;;;-4.82;47.72;97812.59;5111456;28;20063;-61
2024/02/09 10:33:08;;;;;;;5.30;2.60;;;;;;;-4.84;46.10;97809.38;5112713;27;20497;-60
2024/02/09 10:35:34;;;;;;;7.63;4.43;;;;;;;-4.87;45.35;97814.13;5072205;28;20051;-59
2024/02/09 10:38:01;;;;;;;6.72;3.33;;;;;;;-4.86;46.00;97815.72;5299420;23;20074;-63
2024/02/09 10:40:26;;;;;;;4.35;3.33;;;;;;;-5.00;46.17;97772.56;4951661;28;20091;-58
2024/02/09 10:42:53;;;;;;;5.40;3.40;;;;;;;-4.70;47.37;97801.81;4971224;28;20096;-57
2024/02/09 10:45:19;;;;;;;4.78;2.85;;;;;;;-4.52;45.80;97819.56;4990807;28;20049;-59
2024/02/09 10:47:54;;;;;;;6.00;3.30;;;;;;;-4.31;46.63;97816.25;4979174;28;20125;-61
2024/02/09 10:50:59;;;;;;;5.45;3.17;;;;;;;-4.08;45.65;97822.09;4974578;28;20042;-61
2024/02/09 10:53:57;;;;;;;4.47;2.83;;;;;;;-4.44;43.71;97820.28;4954313;28;20471;-60
2024/02/09 10:56:27;;;;;;;6.00;3.03;;;;;;;-4.57;44.67;97812.34;4959463;28;20047;-57
2024/02/09 10:58:56;;;;;;;4.72;3.05;;;;;;;-4.65;44.47;97818.38;4990321;28;20064;-60
2024/02/09 11:01:22;;;;;;;5.68;2.65;;;;;;;-4.67;45.10;97809.22;4990939;28;20034;-63
2024/02/09 11:03:49;;;;;;;4.25;2.72;;;;;;;-4.61;45.43;97817.06;4990608;28;20054;-60
2024/02/09 11:06:15;;;;;;;3.05;2.38;;;;;;;-4.38;45.38;97816.16;4992443;28;20115;-60
2024/02/09 11:08:41;;;;;;;2.80;2.45;;;;;;;-4.60;44.37;97815.28;4992006;28;20500;-60
2024/02/09 11:11:07;;;;;;;3.83;2.67;;;;;;;-4.89;44.69;97805.72;4990997;28;20042;-58
2024/02/09 11:13:33;;;;;;;3.67;2.58;;;;;;;-4.83;44.39;97826.50;4975894;28;20109;-60
2024/02/09 11:16:00;;;;;;;4.20;2.63;;;;;;;-5.12;45.07;97831.63;4972382;28;20529;-61
2024/02/09 11:18:35;;;;;;;4.85;3.05;;;;;;;-5.23;45.05;97821.75;4987282;28;20389;-60
2024/02/09 11:21:11;;;;;;;5.55;3.20;;;;;;;-5.37;44.68;97824.09;4990796;28;20485;-58
2024/02/09 11:23:41;;;;;;;6.45;3.35;;;;;;;-5.17;47.00;97821.03;4973790;28;20050;-59
2024/02/09 11:26:13;;;;;;;3.83;2.97;;;;;;;-5.13;46.36;97828.25;4990300;28;20523;-59
2024/02/09 11:28:43;;;;;;;5.55;3.47;;;;;;;-4.85;48.02;97836.22;4990132;28;20054;-60
2024/02/09 11:31:10;;;;;;;4.70;2.95;;;;;;;-4.72;47.31;97832.22;4990779;28;20124;-61
2024/02/09 11:33:41;;;;;;;4.10;2.95;;;;;;;-4.71;46.85;97828.66;4990396;28;20046;-59
2024/02/09 11:36:07;;;;;;;;;;;;;;;-4.72;48.83;97834.81;4992328;28;20505;-62
2024/02/09 11:38:34;;;;;;;6.25;2.80;;;;;;;-4.57;48.40;97833.81;4981919;28;19981;-58
2024/02/09 11:41:00;;;;;;;6.28;2.60;;;;;;;-4.50;46.70;97841.69;4971119;28;20039;-58
2024/02/09 11:43:26;;;;;;;5.03;2.88;;;;;;;-4.41;47.55;97837.19;4969180;28;20042;-58
2024/02/09 11:45:54;;;;;;;4.38;2.95;;;;;;;-4.55;46.94;97832.84;4974605;28;20042;-58
2024/02/09 11:48:26;;;;;;;7.97;3.08;;;;;;;-4.57;47.37;97838.97;4991615;28;20055;-58
2024/02/09 11:50:57;;;;;;;5.70;3.17;;;;;;;-4.82;47.03;97845.41;4991888;28;20038;-60
2024/02/09 11:53:22;;;;;;;5.22;3.30;;;;;;;-5.10;46.15;97851.16;4991630;28;20049;-60
2024/02/09 11:55:48;;;;;;;5.95;3.10;;;;;;;-5.09;46.52;97852.78;4990615;28;20046;-64
2024/02/09 11:58:14;;;;;;;31.58;17.65;;;;;;;-5.24;47.11;97844.16;4991482;28;20520;-62
2024/02/09 12:00:40;;;;;;;12.65;7.45;;;;;;;-5.26;46.33;97846.13;4990144;28;20053;-55
2024/02/09 12:03:06;;;;;;;6.75;3.97;;;;;;;-5.48;44.08;97847.75;4973231;28;20408;-61
2024/02/09 12:05:32;;;;;;;12.25;6.75;;;;;;;-5.54;45.36;97849.22;4972108;28;20049;-60
2024/02/09 12:07:58;;;;;;;9.35;5.50;;;;;;;-5.54;45.83;97853.59;4992030;28;20047;-57
2024/02/09 12:10:23;;;;;;;4.82;3.45;;;;;;;-5.57;46.98;97853.94;4995327;28;20045;-60
2024/02/09 12:12:50;;;;;;;5.63;2.90;;;;;;;-5.57;44.54;97859.91;4993467;28;20527;-60
2024/02/09 12:15:19;;;;;;;5.13;2.97;;;;;;;-5.59;45.79;97859.28;4993928;28;20173;-62
2024/02/09 12:17:46;;;;;;;4.73;2.50;;;;;;;-5.88;44.46;97862.53;4993414;28;20133;-61
2024/02/09 12:20:14;;;;;;;6.18;3.78;;;;;;;-5.80;45.10;97869.41;4994929;28;20286;-61
2024/02/09 12:22:41;;;;;;;4.13;2.88;;;;;;;-5.74;45.88;97863.56;4994597;28;20075;-62
2024/02/09 12:25:11;;;;;;;3.20;2.53;;;;;;;-5.81;44.78;97863.44;4977595;28;20042;-60
2024/02/09 12:27:38;;;;;;;12.23;5.10;;;;;;;-5.96;44.52;97867.75;4993089;28;20047;-60
2024/02/09 12:30:06;;;;;;;9.45;4.55;;;;;;;-6.40;44.61;97868.28;4977242;28;20045;-60
2024/02/09 12:32:32;;;;;;;14.00;5.13;;;;;;;-6.42;45.29;97865.06;4994583;28;20574;-61
2024/02/09 12:34:58;;;;;;;5.53;3.83;;;;;;;-6.44;45.76;97866.97;4994882;28;20038;-62
2024/02/09 12:37:24;;;;;;;4.40;2.88;;;;;;;-6.43;46.49;97864.25;4994767;28;20162;-60
2024/02/09 12:39:53;;;;;;;3.97;2.42;;;;;;;-6.38;46.01;97874.09;5003682;28;20081;-59
2024/02/09 12:42:31;;;;;;;6.85;3.42;;;;;;;-6.54;44.15;97882.66;4961039;28;20165;-61
2024/02/09 12:45:02;;;;;;;7.32;3.72;;;;;;;-6.69;46.17;97876.56;4994689;28;20069;-61
2024/02/09 12:47:31;;;;;;;7.55;3.63;;;;;;;-6.83;45.54;97880.63;4977248;28;20420;-60
2024/02/09 12:49:57;;;;;;;3.85;3.15;;;;;;;-6.85;47.57;97882.56;4976818;28;20045;-63
2024/02/09 12:52:25;;;;;;;7.43;3.47;;;;;;;-6.99;46.58;97890.97;4994100;28;20042;-61
2024/02/09 12:54:54;;;;;;;6.28;3.25;;;;;;;-6.80;47.37;97894.94;4977108;28;20140;-61
2024/02/09 12:57:21;;;;;;;6.70;3.13;;;;;;;-6.82;46.72;97895.13;4994297;28;20069;-59
2024/02/09 12:59:47;;;;;;;4.50;2.75;;;;;;;-6.81;46.87;97896.72;4976671;28;20042;-61
2024/02/09 13:02:13;;;;;;;5.22;2.50;;;;;;;-6.76;46.58;97911.72;4994113;28;20069;-59
2024/02/09 13:04:39;;;;;;;11.63;5.00;;;;;;;-7.11;46.79;97906.72;4976757;28;20051;-61
2024/02/09 13:07:06;;;;;;;7.43;3.38;;;;;;;-7.22;47.26;97901.91;4993842;28;20050;-60
2024/02/09 13:09:35;;;;;;;6.05;2.97;;;;;;;-7.16;48.53;97911.56;4993985;28;20504;-60
2024/02/09 13:12:01;;;;;;;8.32;4.60;;;;;;;-7.18;47.29;97905.75;4992996;28;20053;-60
2024/02/09 13:14:27;;;;;;;11.90;6.07;;;;;;;-7.29;48.01;97902.69;4960872;28;20125;-62